Time;durP1;ratioP1;P1;durP2;ratioP2;P2;SDS_P1;SDS_P2;PMS_P1;PMS_P2;Temp;Humidity;BMP_temperature;BMP_pressure;BME280_temperature;BME280_humidity;BME280_pressure;Samples;Min_cycle;Max_cycle;Signal;HPM_P1;HPM_P2
2024/04/16 00:01:13;;;;;;;6.40;1.63;;;8.00;99.90;;;;;;4470654;26;20080;-69
2024/04/16 00:03:14;;;;;;;9.70;1.70;;;8.00;99.90;;;;;;4494457;26;20035;-66
2024/04/16 00:05:15;;;;;;;7.35;2.17;;;7.90;99.90;;;;;;4477325;26;20016;-69
2024/04/16 00:07:16;;;;;;;9.25;2.30;;;7.90;99.90;;;;;;4460453;26;20035;-66
2024/04/16 00:09:16;;;;;;;5.90;1.67;;;7.90;99.90;;;;;;4495125;26;20076;-69
2024/04/16 00:11:17;;;;;;;6.80;1.92;;;7.90;99.90;;;;;;4469770;26;20329;-60
2024/04/16 00:13:17;;;;;;;6.45;1.90;;;7.90;99.90;;;;;;4474082;26;20007;-69
2024/04/16 00:15:18;;;;;;;7.35;1.80;;;7.90;99.90;;;;;;4444816;26;20036;-62
2024/04/16 00:17:23;;;;;;;3.97;1.50;;;7.80;99.90;;;;;;4451242;26;20012;-67
2024/04/16 00:19:26;;;;;;;6.80;1.25;;;7.80;99.90;;;;;;4400974;26;20013;-70
2024/04/16 00:21:27;;;;;;;3.35;1.40;;;7.80;99.90;;;;;;4391546;26;20570;-61
2024/04/16 00:23:28;;;;;;;4.45;1.40;;;7.70;99.90;;;;;;4412031;26;20053;-60
2024/04/16 00:25:28;;;;;;;4.68;1.58;;;7.80;99.90;;;;;;4420809;26;20030;-61
2024/04/16 00:27:29;;;;;;;5.20;1.25;;;7.80;99.90;;;;;;4417772;26;20011;-69
2024/04/16 00:29:30;;;;;;;3.80;1.48;;;7.70;99.90;;;;;;4429726;26;20563;-69
2024/04/16 00:31:34;;;;;;;3.08;1.20;;;7.80;99.90;;;;;;4399114;26;20009;-69
2024/04/16 00:33:34;;;;;;;6.05;1.60;;;7.80;99.90;;;;;;4414360;26;20020;-60
2024/04/16 00:35:35;;;;;;;7.32;1.75;;;7.70;99.90;;;;;;4417391;26;20012;-60
2024/04/16 00:37:35;;;;;;;5.00;1.42;;;7.70;99.90;;;;;;4433008;26;20053;-60
2024/04/16 00:39:36;;;;;;;3.97;1.35;;;7.80;99.90;;;;;;4438356;26;20321;-66
2024/04/16 00:41:36;;;;;;;4.85;1.48;;;7.80;99.90;;;;;;4445949;26;20008;-61
2024/04/16 00:43:37;;;;;;;5.63;1.40;;;7.80;99.90;;;;;;4430383;26;20024;-61
2024/04/16 00:45:38;;;;;;;3.08;0.90;;;7.80;99.90;;;;;;4412266;26;20160;-61
2024/04/16 00:47:39;;;;;;;5.03;1.30;;;7.80;99.90;;;;;;4416656;26;20306;-67
2024/04/16 00:49:40;;;;;;;3.72;1.48;;;7.70;99.90;;;;;;4409407;26;20005;-72
2024/04/16 00:51:42;;;;;;;4.30;1.70;;;7.70;99.90;;;;;;4393579;26;20029;-72
2024/04/16 00:53:43;;;;;;;5.45;1.15;;;7.80;99.90;;;;;;4404810;26;20081;-60
2024/04/16 00:55:45;;;;;;;4.38;1.20;;;7.80;99.90;;;;;;4440823;26;20368;-61
2024/04/16 00:57:46;;;;;;;;;;;7.70;99.90;;;;;;4411264;26;20032;-61
2024/04/16 00:59:47;;;;;;;3.63;1.25;;;7.80;99.90;;;;;;4408816;26;19933;-61
2024/04/16 01:02:02;;;;;;;3.97;1.10;;;7.70;99.90;;;;;;4431262;26;20008;-68
2024/04/16 01:04:04;;;;;;;4.32;1.30;;;7.70;99.90;;;;;;4436824;26;20008;-72
2024/04/16 01:06:05;;;;;;;4.95;1.38;;;7.70;99.90;;;;;;4425596;26;20020;-68
2024/04/16 01:08:08;;;;;;;5.97;1.48;;;7.70;99.90;;;;;;4429820;26;20008;-69
2024/04/16 01:10:08;;;;;;;4.07;1.20;;;7.70;99.90;;;;;;4409149;26;20048;-73
2024/04/16 01:12:09;;;;;;;3.65;1.25;;;7.70;99.90;;;;;;4429975;26;20020;-68
2024/04/16 01:14:10;;;;;;;9.15;1.40;;;7.70;99.90;;;;;;4450048;26;20015;-72
2024/04/16 01:16:10;;;;;;;3.78;0.90;;;7.70;99.90;;;;;;4439563;26;20344;-61
2024/04/16 01:18:11;;;;;;;2.88;0.93;;;7.60;99.90;;;;;;4435673;26;20353;-68
2024/04/16 01:20:12;;;;;;;5.82;1.38;;;7.70;99.90;;;;;;4431938;26;20365;-68
2024/04/16 01:22:13;;;;;;;8.77;1.42;;;7.70;99.90;;;;;;4448721;26;19996;-65
2024/04/16 01:24:15;;;;;;;4.28;1.23;;;7.70;99.90;;;;;;4458818;26;20008;-69
2024/04/16 01:26:16;;;;;;;3.45;0.98;;;7.70;99.90;;;;;;4482878;26;20022;-73
2024/04/16 01:28:17;;;;;;;2.45;1.20;;;7.70;99.90;;;;;;4477031;26;20004;-68
2024/04/16 01:30:17;;;;;;;5.70;1.50;;;7.70;99.90;;;;;;4481754;26;20000;-60
2024/04/16 01:32:21;;;;;;;3.60;1.17;;;7.70;99.90;;;;;;4427380;26;20005;-68
2024/04/16 01:34:22;;;;;;;6.60;1.60;;;7.70;99.90;;;;;;4498564;26;20003;-72
2024/04/16 01:36:22;;;;;;;4.35;1.40;;;7.70;99.90;;;;;;4483117;26;20487;-72
2024/04/16 01:38:23;;;;;;;5.97;1.27;;;7.70;99.90;;;;;;4497030;26;20018;-73
2024/04/16 01:40:23;;;;;;;6.50;1.48;;;7.70;99.90;;;;;;4478642;26;20335;-61
2024/04/16 01:42:24;;;;;;;5.85;1.40;;;7.70;99.90;;;;;;4468310;26;20008;-61
2024/04/16 01:44:25;;;;;;;4.18;1.23;;;7.70;99.90;;;;;;4434670;26;20004;-68
2024/04/16 01:46:26;;;;;;;4.85;1.13;;;7.60;99.90;;;;;;4476347;26;20007;-68
2024/04/16 01:48:26;;;;;;;3.63;1.33;;;7.60;99.90;;;;;;4486269;26;20008;-68
2024/04/16 01:50:27;;;;;;;4.70;1.63;;;7.70;99.90;;;;;;4491878;26;20011;-67
2024/04/16 01:52:27;;;;;;;3.92;1.15;;;7.70;99.90;;;;;;4500463;26;20010;-67
2024/04/16 01:54:28;;;;;;;5.35;1.48;;;7.70;99.90;;;;;;4478200;26;20008;-66
2024/04/16 01:56:29;;;;;;;7.40;1.63;;;7.70;99.90;;;;;;4461792;26;20040;-60
2024/04/16 01:58:29;;;;;;;4.45;1.40;;;7.60;99.90;;;;;;4486446;26;20437;-60
2024/04/16 02:00:30;;;;;;;20.77;1.50;;;7.60;99.90;;;;;;4471769;26;20004;-69
2024/04/16 02:02:31;;;;;;;5.07;1.55;;;7.70;99.90;;;;;;4477314;26;20008;-60
2024/04/16 02:04:32;;;;;;;3.92;1.35;;;7.60;99.90;;;;;;4494240;26;20019;-66
2024/04/16 02:06:32;;;;;;;4.28;1.23;;;7.60;99.90;;;;;;4481437;26;20376;-67
2024/04/16 02:08:33;;;;;;;5.50;1.48;;;7.60;99.90;;;;;;4437276;26;20419;-68
2024/04/16 02:10:34;;;;;;;4.93;1.63;;;7.60;99.90;;;;;;4505086;26;20019;-60
2024/04/16 02:12:34;;;;;;;3.40;1.33;;;7.60;99.90;;;;;;4468237;26;20005;-68
2024/04/16 02:14:35;;;;;;;7.47;1.88;;;7.50;99.90;;;;;;4460871;26;20349;-73
2024/04/16 02:16:36;;;;;;;7.30;1.85;;;7.50;99.90;;;;;;4426053;26;20009;-61
2024/04/16 02:18:37;;;;;;;5.75;1.83;;;7.50;99.90;;;;;;4416856;26;20434;-68
2024/04/16 02:20:38;;;;;;;8.50;1.88;;;7.50;99.90;;;;;;4413763;26;20001;-73
2024/04/16 02:22:38;;;;;;;4.10;1.35;;;7.50;99.90;;;;;;4438400;26;20472;-69
2024/04/16 02:24:39;;;;;;;7.00;1.70;;;7.50;99.90;;;;;;4430757;26;20129;-66
2024/04/16 02:26:40;;;;;;;4.60;1.25;;;7.60;99.90;;;;;;4447256;26;20059;-69
2024/04/16 02:28:44;;;;;;;4.50;1.55;;;7.50;99.90;;;;;;4450552;26;20008;-69
2024/04/16 02:30:45;;;;;;;5.80;1.90;;;7.50;99.90;;;;;;4435184;26;20008;-67
2024/04/16 02:32:46;;;;;;;7.60;2.17;;;7.50;99.90;;;;;;4443797;26;20067;-66
2024/04/16 02:34:48;;;;;;;10.80;1.80;;;7.50;99.90;;;;;;4421653;26;20006;-69
2024/04/16 02:36:49;;;;;;;;;;;7.60;99.90;;;;;;4403186;26;20008;-67
2024/04/16 02:38:50;;;;;;;5.75;1.50;;;7.60;99.90;;;;;;4411797;26;19933;-67
2024/04/16 02:40:50;;;;;;;8.13;1.63;;;7.60;99.90;;;;;;4417113;26;20369;-68
2024/04/16 02:42:51;;;;;;;9.32;2.05;;;7.40;99.90;;;;;;4422427;26;20041;-67
2024/04/16 02:44:52;;;;;;;9.68;1.80;;;7.30;99.90;;;;;;4393180;26;20144;-67
2024/04/16 02:46:53;;;;;;;8.43;1.77;;;7.20;99.90;;;;;;4406474;26;20450;-68
2024/04/16 02:48:54;;;;;;;5.47;1.70;;;7.20;99.90;;;;;;4432648;26;20005;-68
2024/04/16 02:50:54;;;;;;;3.80;1.13;;;7.20;99.90;;;;;;4421827;26;20025;-62
2024/04/16 02:52:55;;;;;;;7.18;1.70;;;7.10;99.90;;;;;;4406640;26;20470;-61
2024/04/16 02:54:56;;;;;;;5.43;1.73;;;7.00;99.90;;;;;;4408477;26;20004;-67
2024/04/16 02:56:57;;;;;;;6.80;1.50;;;7.00;99.90;;;;;;4413242;26;20018;-61
2024/04/16 02:58:57;;;;;;;4.07;1.30;;;7.10;99.90;;;;;;4425245;26;20009;-71
2024/04/16 03:01:04;;;;;;;4.50;1.50;;;7.10;99.90;;;;;;4397817;26;20101;-67
2024/04/16 03:03:05;;;;;;;3.88;1.02;;;7.00;99.90;;;;;;4386859;26;20018;-67
2024/04/16 03:05:05;;;;;;;4.80;1.38;;;7.00;99.90;;;;;;4406302;26;24736;-67
2024/04/16 03:07:06;;;;;;;7.57;1.60;;;7.10;99.90;;;;;;4403299;26;20016;-67
2024/04/16 03:09:07;;;;;;;5.38;1.40;;;7.00;99.90;;;;;;4418971;26;20020;-61
2024/04/16 03:11:08;;;;;;;5.70;1.35;;;7.00;99.90;;;;;;4392390;26;20009;-68
2024/04/16 03:13:11;;;;;;;5.72;1.35;;;6.90;99.90;;;;;;4412634;26;20016;-66
2024/04/16 03:15:12;;;;;;;6.10;1.25;;;7.00;99.90;;;;;;4444553;26;20012;-67
2024/04/16 03:17:13;;;;;;;7.03;1.50;;;7.00;99.90;;;;;;4423185;26;20004;-67
2024/04/16 03:19:13;;;;;;;6.40;1.55;;;7.10;99.90;;;;;;4399573;26;20452;-61
2024/04/16 03:21:14;;;;;;;8.10;1.30;;;7.00;99.90;;;;;;4366184;27;20082;-70
2024/04/16 03:23:15;;;;;;;7.05;2.03;;;7.00;99.90;;;;;;4424600;26;20019;-69
2024/04/16 03:25:15;;;;;;;5.05;1.38;;;7.00;99.90;;;;;;4427806;26;20008;-68
2024/04/16 03:27:16;;;;;;;5.18;1.60;;;7.00;99.90;;;;;;4474330;26;20477;-68
2024/04/16 03:29:16;;;;;;;6.55;1.38;;;7.00;99.90;;;;;;4448720;26;20448;-68
2024/04/16 03:31:17;;;;;;;6.55;1.88;;;7.00;99.90;;;;;;4470530;26;20039;-68
2024/04/16 03:33:18;;;;;;;5.88;1.77;;;7.00;99.90;;;;;;4464271;26;20047;-67
2024/04/16 03:35:18;;;;;;;7.03;1.42;;;7.00;99.90;;;;;;4470664;26;20519;-61
2024/04/16 03:37:19;;;;;;;4.97;1.60;;;7.00;99.90;;;;;;4458841;26;20019;-67
2024/04/16 03:39:20;;;;;;;6.80;2.00;;;7.00;99.90;;;;;;4472216;26;20004;-67
2024/04/16 03:41:22;;;;;;;4.05;1.48;;;7.00;99.90;;;;;;4446231;26;20020;-61
2024/04/16 03:43:23;;;;;;;;;;;7.00;99.90;;;;;;4422643;26;20005;-68
2024/04/16 03:45:23;;;;;;;5.45;1.60;;;6.90;99.90;;;;;;4416293;26;19940;-66
2024/04/16 03:47:24;;;;;;;6.70;1.48;;;6.90;99.90;;;;;;4440540;26;20040;-71
2024/04/16 03:49:25;;;;;;;7.13;1.75;;;7.00;99.90;;;;;;4440650;26;20005;-61
2024/04/16 03:51:26;;;;;;;7.88;1.80;;;7.00;99.90;;;;;;4449086;26;20000;-67
2024/04/16 03:53:29;;;;;;;5.35;1.80;;;7.00;99.90;;;;;;4440840;26;20012;-61
2024/04/16 03:55:30;;;;;;;6.03;2.00;;;7.00;99.90;;;;;;4450127;26;20062;-71
2024/04/16 03:57:31;;;;;;;7.28;1.80;;;7.10;99.90;;;;;;4436158;26;20016;-62
2024/04/16 03:59:48;;;;;;;4.97;1.77;;;7.10;99.90;;;;;;4447891;26;20093;-67
2024/04/16 04:01:49;;;;;;;5.88;1.70;;;7.00;99.90;;;;;;4429987;26;21147;-61
2024/04/16 04:03:50;;;;;;;3.75;1.60;;;7.00;99.90;;;;;;4430526;26;20013;-61
2024/04/16 04:05:51;;;;;;;4.93;1.70;;;6.90;99.90;;;;;;4422250;26;20013;-67
2024/04/16 04:07:52;;;;;;;8.68;1.63;;;7.00;99.90;;;;;;4425992;26;20023;-61
2024/04/16 04:09:53;;;;;;;5.53;2.05;;;7.00;99.90;;;;;;4423037;26;20009;-68
2024/04/16 04:11:54;;;;;;;7.72;1.90;;;6.90;99.90;;;;;;4408250;26;20012;-69
2024/04/16 04:13:54;;;;;;;5.18;1.42;;;6.90;99.90;;;;;;4419098;26;20362;-68
2024/04/16 04:15:56;;;;;;;5.85;1.55;;;6.80;99.90;;;;;;4430297;26;20015;-68
2024/04/16 04:17:57;;;;;;;7.32;1.45;;;6.90;99.90;;;;;;4440613;26;20023;-68
2024/04/16 04:19:58;;;;;;;4.60;1.33;;;6.90;99.90;;;;;;4438940;26;20009;-68
2024/04/16 04:21:58;;;;;;;7.80;1.75;;;7.00;99.90;;;;;;4438214;26;20437;-69
2024/04/16 04:23:59;;;;;;;7.07;1.80;;;6.90;99.90;;;;;;4430625;26;20024;-68
2024/04/16 04:26:00;;;;;;;6.72;1.85;;;6.90;99.90;;;;;;4436396;26;20048;-68
2024/04/16 04:28:03;;;;;;;4.88;1.50;;;6.90;99.90;;;;;;4444537;26;20023;-67
2024/04/16 04:30:04;;;;;;;4.63;1.15;;;6.90;99.90;;;;;;4443586;26;20012;-67
2024/04/16 04:32:08;;;;;;;4.68;1.45;;;6.80;99.90;;;;;;4447275;26;20004;-67
2024/04/16 04:34:09;;;;;;;4.35;1.40;;;6.90;99.90;;;;;;4433330;26;20000;-67
2024/04/16 04:36:13;;;;;;;4.47;1.10;;;7.00;99.90;;;;;;4441761;26;20010;-69
2024/04/16 04:38:14;;;;;;;2.63;1.10;;;6.90;99.90;;;;;;4440807;26;20026;-69
2024/04/16 04:40:15;;;;;;;4.93;1.42;;;6.90;99.90;;;;;;4419716;26;20004;-69
2024/04/16 04:42:15;;;;;;;5.32;1.88;;;7.00;99.90;;;;;;4446317;26;20074;-69
2024/04/16 04:44:19;;;;;;;5.85;2.00;;;7.00;99.90;;;;;;4439825;26;20059;-69
2024/04/16 04:46:20;;;;;;;6.80;1.60;;;7.00;99.90;;;;;;4438068;26;20079;-69
2024/04/16 04:48:20;;;;;;;4.82;1.55;;;7.00;99.90;;;;;;4454423;26;20019;-69
2024/04/16 04:50:21;;;;;;;6.50;1.42;;;7.10;99.90;;;;;;4441863;26;20019;-68
2024/04/16 04:52:22;;;;;;;7.30;1.98;;;7.10;99.90;;;;;;4435355;26;20004;-69
2024/04/16 04:54:23;;;;;;;7.03;2.10;;;7.10;99.90;;;;;;4458832;26;20020;-75
2024/04/16 04:56:23;;;;;;;6.10;1.60;;;7.00;99.90;;;;;;4441867;26;20423;-72
2024/04/16 04:58:24;;;;;;;5.68;1.60;;;7.10;99.90;;;;;;4454944;26;20014;-72
2024/04/16 05:00:25;;;;;;;8.70;2.58;;;7.10;99.90;;;;;;4447445;26;20040;-72
2024/04/16 05:02:26;;;;;;;5.00;1.80;;;7.10;99.90;;;;;;4439990;26;20024;-72
2024/04/16 05:04:26;;;;;;;6.63;1.85;;;7.10;99.90;;;;;;4443830;26;20030;-72
2024/04/16 05:06:27;;;;;;;5.00;1.70;;;7.10;99.90;;;;;;4447527;26;20352;-72
2024/04/16 05:08:28;;;;;;;5.28;1.33;;;7.10;99.90;;;;;;4440832;26;20045;-71
2024/04/16 05:10:29;;;;;;;4.75;1.67;;;7.20;99.90;;;;;;4430438;26;20335;-72
2024/04/16 05:12:30;;;;;;;5.45;1.98;;;7.10;99.90;;;;;;4428270;26;20081;-72
2024/04/16 05:14:31;;;;;;;5.47;1.73;;;7.20;99.90;;;;;;4438022;26;20019;-72
2024/04/16 05:16:32;;;;;;;7.75;1.95;;;7.30;99.90;;;;;;4408111;26;20008;-72
2024/04/16 05:18:32;;;;;;;8.27;1.88;;;7.30;99.90;;;;;;4444205;26;20008;-72
2024/04/16 05:20:33;;;;;;;5.82;2.03;;;7.30;99.90;;;;;;4421202;26;20004;-69
2024/04/16 05:22:34;;;;;;;6.90;2.10;;;7.30;99.90;;;;;;4477674;26;20004;-71
2024/04/16 05:24:34;;;;;;;4.35;1.73;;;7.30;99.90;;;;;;4480010;26;20475;-71
2024/04/16 05:26:35;;;;;;;5.32;1.90;;;7.30;99.90;;;;;;4473796;26;20018;-70
2024/04/16 05:28:35;;;;;;;5.60;1.90;;;7.30;99.90;;;;;;4465933;26;20340;-72
2024/04/16 05:30:39;;;;;;;11.15;3.40;;;7.40;99.90;;;;;;4437393;26;20005;-71
2024/04/16 05:32:39;;;;;;;6.85;1.60;;;7.40;99.90;;;;;;4471216;26;20031;-61
2024/04/16 05:34:40;;;;;;;8.15;1.90;;;7.30;99.90;;;;;;4479551;26;20004;-61
2024/04/16 05:36:40;;;;;;;5.55;1.38;;;7.30;99.90;;;;;;4478998;26;20456;-60
2024/04/16 06:00:24;;;;;;;3.78;1.52;;;7.30;99.90;;;;;;4436955;24;20512;-73
2024/04/16 06:02:25;;;;;;;5.32;1.30;;;7.30;99.90;;;;;;4438051;26;20084;-74
2024/04/16 06:04:25;;;;;;;5.30;1.45;;;7.30;99.90;;;;;;4410062;26;20060;-75
2024/04/16 06:06:26;;;;;;;5.85;1.42;;;7.30;99.90;;;;;;4436357;26;20421;-75
2024/04/16 06:08:27;;;;;;;3.05;1.38;;;7.30;99.90;;;;;;4402989;26;20008;-74
2024/04/16 06:10:27;;;;;;;7.25;1.33;;;7.30;99.90;;;;;;4416053;26;20432;-75
2024/04/16 06:12:28;;;;;;;4.13;1.25;;;7.30;99.90;;;;;;4438503;26;20008;-75
2024/04/16 06:14:28;;;;;;;4.13;1.35;;;7.30;99.90;;;;;;4441616;26;20013;-75
2024/04/16 06:16:29;;;;;;;6.07;2.03;;;7.30;99.90;;;;;;4436450;26;20480;-75
2024/04/16 06:18:30;;;;;;;6.30;1.75;;;7.20;99.90;;;;;;4437760;26;20053;-75
2024/04/16 06:20:30;;;;;;;6.15;1.92;;;7.20;99.90;;;;;;4437654;26;20008;-75
2024/04/16 06:22:31;;;;;;;3.28;1.45;;;7.20;99.90;;;;;;4442566;26;20436;-75
2024/04/16 06:24:32;;;;;;;8.18;1.85;;;7.20;99.90;;;;;;4441795;26;20016;-74
2024/04/16 06:26:33;;;;;;;3.80;1.15;;;7.10;99.90;;;;;;4441094;26;20020;-75
2024/04/16 06:28:33;;;;;;;2.80;1.10;;;7.10;99.90;;;;;;4443162;26;20004;-75
2024/04/16 06:30:34;;;;;;;3.40;1.17;;;7.00;99.90;;;;;;4443950;26;20023;-76
2024/04/16 06:32:34;;;;;;;4.75;1.50;;;7.10;99.90;;;;;;4444939;26;20138;-76
2024/04/16 06:34:35;;;;;;;2.72;1.15;;;7.10;99.90;;;;;;4443988;26;20036;-75
2024/04/16 06:36:35;;;;;;;2.30;0.80;;;6.90;99.90;;;;;;4439426;26;20008;-76
2024/04/16 06:38:36;;;;;;;1.83;0.90;;;6.90;99.90;;;;;;4414540;26;20012;-75
2024/04/16 06:40:36;;;;;;;1.65;0.90;;;6.90;99.90;;;;;;4436954;26;20019;-75
2024/04/16 06:42:37;;;;;;;2.00;0.73;;;6.90;99.90;;;;;;4438276;26;20033;-75
2024/04/16 06:44:38;;;;;;;2.05;0.77;;;6.90;99.90;;;;;;4443080;26;20012;-75
2024/04/16 06:46:38;;;;;;;3.95;1.20;;;6.90;99.90;;;;;;4411440;26;20494;-75
2024/04/16 06:48:39;;;;;;;1.35;0.77;;;6.90;99.90;;;;;;4408293;26;20030;-74
2024/04/16 06:50:45;;;;;;;1.50;0.90;;;6.80;99.90;;;;;;4408403;26;20012;-75
2024/04/16 06:52:46;;;;;;;0.88;0.60;;;6.80;99.90;;;;;;4396832;26;20482;-74
2024/04/16 06:54:47;;;;;;;2.70;0.80;;;6.80;99.90;;;;;;4441152;26;20019;-74
2024/04/16 06:56:48;;;;;;;2.50;0.90;;;6.80;99.90;;;;;;4442174;26;20057;-74
2024/04/16 06:58:49;;;;;;;1.92;0.85;;;6.90;99.90;;;;;;4442977;26;20020;-74
2024/04/16 07:00:49;;;;;;;4.15;0.93;;;6.90;99.90;;;;;;4417943;26;20023;-75
2024/04/16 07:02:50;;;;;;;2.67;0.90;;;6.90;99.90;;;;;;4440095;26;20004;-75
2024/04/16 07:04:50;;;;;;;0.98;0.65;;;6.90;99.90;;;;;;4440991;26;20013;-75
2024/04/16 07:06:52;;;;;;;1.80;0.70;;;6.90;99.90;;;;;;4444146;26;20356;-75
2024/04/16 07:08:55;;;;;;;3.22;0.90;;;6.90;99.90;;;;;;4436695;26;20053;-75
2024/04/16 07:10:56;;;;;;;1.88;0.98;;;6.90;99.90;;;;;;4440535;26;20091;-63
2024/04/16 07:12:56;;;;;;;0.82;0.63;;;6.90;99.90;;;;;;4410353;26;20481;-64
2024/04/16 07:14:57;;;;;;;1.77;0.65;;;6.90;99.90;;;;;;4446137;26;20032;-63
2024/04/16 07:16:58;;;;;;;1.65;0.88;;;6.90;99.90;;;;;;4440096;26;20008;-63
2024/04/16 07:18:58;;;;;;;3.90;0.98;;;6.90;99.90;;;;;;4439947;26;20456;-63
2024/04/16 07:20:59;;;;;;;1.25;0.80;;;6.90;99.90;;;;;;4441206;26;20018;-63
2024/04/16 07:23:00;;;;;;;1.95;0.90;;;7.00;99.90;;;;;;4443374;26;20020;-62
2024/04/16 07:25:01;;;;;;;2.95;0.90;;;7.00;99.90;;;;;;4438929;26;20754;-62
2024/04/16 07:27:01;;;;;;;4.15;1.40;;;7.10;99.90;;;;;;4410892;26;20004;-62
2024/04/16 07:29:02;;;;;;;4.43;1.30;;;7.10;99.90;;;;;;4439793;26;20011;-62
2024/04/16 07:31:03;;;;;;;3.40;0.90;;;7.20;99.90;;;;;;4439897;26;20042;-62
2024/04/16 07:33:04;;;;;;;2.72;1.23;;;7.20;99.90;;;;;;4446368;26;20538;-62
2024/04/16 07:35:05;;;;;;;2.92;1.25;;;7.30;99.90;;;;;;4441983;26;20027;-63
2024/04/16 07:37:06;;;;;;;3.67;1.50;;;7.40;99.90;;;;;;4439177;26;20024;-62
2024/04/16 07:39:07;;;;;;;4.22;1.30;;;7.40;99.90;;;;;;4444225;26;20355;-62
2024/04/16 07:41:08;;;;;;;4.60;1.52;;;7.50;99.90;;;;;;4440429;26;20018;-62
2024/04/16 07:43:08;;;;;;;5.72;1.63;;;7.50;99.90;;;;;;4447129;26;20004;-62
2024/04/16 07:45:09;;;;;;;4.55;1.50;;;7.60;99.90;;;;;;4412677;26;20433;-63
2024/04/16 07:47:10;;;;;;;4.57;1.50;;;7.60;99.90;;;;;;4415178;26;20001;-62
2024/04/16 07:49:10;;;;;;;6.10;1.80;;;7.70;99.90;;;;;;4415813;26;20009;-62
2024/04/16 07:51:11;;;;;;;4.95;1.83;;;7.70;99.90;;;;;;4443942;26;20497;-62
2024/04/16 07:53:12;;;;;;;7.07;2.00;;;7.80;99.90;;;;;;4444943;26;20022;-62
2024/04/16 07:55:12;;;;;;;8.07;1.95;;;7.90;99.90;;;;;;4443351;26;20004;-62
2024/04/16 07:57:13;;;;;;;12.20;2.40;;;7.90;99.90;;;;;;4445804;26;20036;-62
2024/04/16 07:59:13;;;;;;;7.85;2.10;;;8.00;99.90;;;;;;4448704;26;20073;-62
2024/04/16 08:01:15;;;;;;;14.73;2.30;;;8.00;99.90;;;;;;4438294;26;20015;-62
2024/04/16 08:03:16;;;;;;;3.42;1.70;;;8.10;99.90;;;;;;4441773;26;20414;-62
2024/04/16 08:05:17;;;;;;;6.18;1.83;;;8.10;99.90;;;;;;4446165;26;20418;-63
2024/04/16 08:07:18;;;;;;;11.50;2.20;;;8.20;99.90;;;;;;4441907;26;20015;-62
2024/04/16 08:09:18;;;;;;;6.28;1.80;;;8.30;99.90;;;;;;4444357;26;20409;-62
2024/04/16 08:11:19;;;;;;;9.00;2.33;;;8.40;99.90;;;;;;4442320;26;20424;-62
2024/04/16 08:13:19;;;;;;;8.88;2.58;;;8.40;99.90;;;;;;4442355;26;20040;-62
2024/04/16 08:15:20;;;;;;;9.68;2.22;;;8.50;99.90;;;;;;4438088;26;20023;-62
2024/04/16 08:17:21;;;;;;;8.50;2.47;;;8.50;99.90;;;;;;4439432;26;20367;-63
2024/04/16 08:19:21;;;;;;;8.10;2.13;;;8.50;99.90;;;;;;4439000;26;20012;-62
2024/04/16 08:21:22;;;;;;;6.90;1.83;;;8.60;99.90;;;;;;4406559;26;20016;-62
2024/04/16 08:23:23;;;;;;;14.55;2.85;;;8.60;99.90;;;;;;4437024;26;20030;-62
2024/04/16 08:25:24;;;;;;;10.73;2.25;;;8.70;99.90;;;;;;4437540;26;20024;-62
2024/04/16 08:27:24;;;;;;;5.60;1.90;;;8.70;99.90;;;;;;4436607;26;20050;-62
2024/04/16 08:29:25;;;;;;;9.13;2.38;;;8.70;99.90;;;;;;4436289;26;20035;-62
2024/04/16 08:31:26;;;;;;;13.60;2.22;;;8.80;99.90;;;;;;4441335;26;20043;-62
2024/04/16 08:33:26;;;;;;;8.77;1.63;;;8.80;99.90;;;;;;4440527;26;20031;-62
2024/04/16 08:35:28;;;;;;;8.15;1.90;;;8.90;99.90;;;;;;4440275;26;20028;-62
2024/04/16 08:37:30;;;;;;;9.75;2.33;;;9.00;99.90;;;;;;4411575;26;20381;-63
2024/04/16 08:39:31;;;;;;;10.63;2.30;;;9.00;99.90;;;;;;4442237;26;20011;-62
2024/04/16 08:41:31;;;;;;;7.80;1.85;;;9.00;99.90;;;;;;4442427;26;20064;-62
2024/04/16 08:43:37;;;;;;;10.20;2.53;;;9.10;99.90;;;;;;4411007;26;20053;-62
2024/04/16 08:45:38;;;;;;;10.15;1.92;;;9.10;99.90;;;;;;4438077;26;20020;-62
2024/04/16 08:47:39;;;;;;;8.82;1.83;;;9.20;99.90;;;;;;4439816;26;20081;-61
2024/04/16 08:49:41;;;;;;;6.82;2.03;;;9.20;99.90;;;;;;4443723;26;20011;-62
2024/04/16 08:51:43;;;;;;;11.55;1.98;;;9.20;99.90;;;;;;4438252;26;20019;-61
2024/04/16 08:53:46;;;;;;;9.33;2.13;;;9.20;99.90;;;;;;4411596;26;20027;-62
2024/04/16 08:55:47;;;;;;;8.63;1.88;;;9.20;99.90;;;;;;4442582;26;20008;-62
2024/04/16 08:57:49;;;;;;;7.72;1.67;;;9.20;99.90;;;;;;4443746;26;20439;-63
2024/04/16 08:59:49;;;;;;;9.20;1.92;;;9.30;99.90;;;;;;4442571;26;20019;-62
2024/04/16 09:01:51;;;;;;;10.82;2.22;;;9.30;99.90;;;;;;4407714;26;20005;-62
2024/04/16 09:03:53;;;;;;;14.25;2.05;;;9.30;99.90;;;;;;4442596;26;20346;-62
2024/04/16 09:05:53;;;;;;;9.05;2.40;;;9.40;99.90;;;;;;4437010;26;20027;-62
2024/04/16 09:07:54;;;;;;;4.65;1.45;;;9.40;99.90;;;;;;4443240;26;20578;-61
2024/04/16 09:09:55;;;;;;;6.82;2.00;;;9.40;99.90;;;;;;4440163;26;20012;-62
2024/04/16 09:11:56;;;;;;;9.32;2.08;;;9.40;99.90;;;;;;4439410;26;20015;-62
2024/04/16 09:13:57;;;;;;;7.82;1.80;;;9.50;99.90;;;;;;4437070;26;20057;-62
2024/04/16 09:15:58;;;;;;;12.45;2.67;;;9.50;99.90;;;;;;4442001;26;20026;-61
2024/04/16 09:17:58;;;;;;;10.98;1.92;;;9.50;99.90;;;;;;4441510;26;20004;-62
2024/04/16 09:20:02;;;;;;;6.10;1.80;;;9.50;99.90;;;;;;4441920;26;20509;-62
2024/04/16 09:22:03;;;;;;;7.43;1.83;;;9.50;99.90;;;;;;4436010;26;20020;-62
2024/04/16 09:24:05;;;;;;;7.40;1.80;;;9.50;99.90;;;;;;4442269;26;20040;-62
2024/04/16 09:26:13;;;;;;;10.73;2.22;;;9.50;99.90;;;;;;4442549;26;20051;-62
2024/04/16 09:28:14;;;;;;;9.98;2.55;;;9.40;99.90;;;;;;4442899;26;20796;-68
2024/04/16 09:30:16;;;;;;;9.88;2.20;;;9.50;99.90;;;;;;4406337;26;20067;-75
2024/04/16 09:32:17;;;;;;;15.65;2.92;;;9.50;99.90;;;;;;4437796;26;20008;-75
2024/04/16 09:34:17;;;;;;;11.82;2.35;;;9.50;99.90;;;;;;4443238;26;20019;-75
2024/04/16 09:36:18;;;;;;;11.98;2.72;;;9.40;99.90;;;;;;4434414;26;20317;-74
2024/04/16 09:38:19;;;;;;;8.23;2.55;;;9.40;99.90;;;;;;4418505;26;20028;-73
2024/04/16 09:40:19;;;;;;;11.05;2.72;;;9.40;99.90;;;;;;4438796;26;20082;-76
2024/04/16 09:42:25;;;;;;;8.38;2.35;;;9.40;99.90;;;;;;4410726;26;20032;-74
2024/04/16 09:44:26;;;;;;;9.50;2.08;;;9.40;99.90;;;;;;4441217;26;20364;-74
2024/04/16 09:46:28;;;;;;;7.15;1.85;;;9.40;99.90;;;;;;4433029;26;20081;-74
2024/04/16 09:48:31;;;;;;;9.23;2.17;;;9.40;99.90;;;;;;4441240;26;20020;-76
2024/04/16 09:50:32;;;;;;;;;;;9.50;99.90;;;;;;4436803;26;20344;-74
2024/04/16 09:52:34;;;;;;;8.38;1.60;;;9.70;99.90;;;;;;4434198;26;19945;-75
2024/04/16 09:54:36;;;;;;;6.65;1.63;;;9.90;99.90;;;;;;4433808;26;20038;-75
2024/04/16 09:56:43;;;;;;;10.70;2.00;;;10.20;99.90;;;;;;4440737;26;20665;-75
2024/04/16 09:58:53;;;;;;;5.72;1.55;;;10.30;99.90;;;;;;4406025;26;20510;-75
2024/04/16 10:00:54;;;;;;;6.40;1.52;;;10.50;99.90;;;;;;4408895;26;20539;-75
2024/04/16 10:03:00;;;;;;;10.10;2.40;;;10.70;99.90;;;;;;4443695;26;20027;-77
2024/04/16 10:05:03;;;;;;;7.55;1.90;;;10.80;99.90;;;;;;4440805;26;20026;-74
2024/04/16 10:07:22;;;;;;;;;;;11.00;99.90;;;;;;4438302;26;20036;-75
2024/04/16 10:10:00;;;;;;;4.03;1.27;;;11.10;99.90;;;;;;4441674;26;19938;-76
2024/04/16 10:12:02;;;;;;;7.18;1.52;;;11.30;99.90;;;;;;4438918;26;20012;-74
2024/04/16 10:14:03;;;;;;;10.43;1.58;;;11.30;99.90;;;;;;4439385;26;20731;-76
2024/04/16 10:16:12;;;;;;;7.47;1.90;;;11.40;99.90;;;;;;4447023;26;20062;-77
2024/04/16 10:18:14;;;;;;;7.43;2.00;;;11.50;99.90;;;;;;4444059;26;20755;-76
2024/04/16 10:20:15;;;;;;;7.00;1.55;;;11.50;99.90;;;;;;4443985;26;20040;-76
2024/04/16 10:22:16;;;;;;;5.95;1.50;;;11.50;99.90;;;;;;4441709;26;20578;-76
2024/04/16 10:24:19;;;;;;;8.23;1.85;;;11.40;99.90;;;;;;4438499;26;20004;-75
2024/04/16 10:26:19;;;;;;;;;;;11.40;99.90;;;;;;4441041;26;20007;-74
2024/04/16 10:28:29;;;;;;;6.07;1.70;;;11.50;99.90;;;;;;4436089;26;19940;-75
2024/04/16 10:30:31;;;;;;;9.38;1.85;;;11.50;99.90;;;;;;4408933;26;20510;-75
2024/04/16 10:32:31;;;;;;;9.50;1.88;;;11.50;99.90;;;;;;4440707;26;20436;-71
2024/04/16 10:34:32;;;;;;;7.85;2.30;;;11.50;99.90;;;;;;4412314;26;20113;-75
2024/04/16 10:36:35;;;;;;;7.60;1.85;;;11.50;99.90;;;;;;4408484;26;20037;-75
2024/04/16 10:38:36;;;;;;;5.55;1.90;;;11.50;99.90;;;;;;4444305;26;20037;-66
2024/04/16 10:40:38;;;;;;;8.15;1.63;;;11.60;99.90;;;;;;4375727;26;20024;-67
2024/04/16 10:42:41;;;;;;;8.73;1.85;;;11.60;99.90;;;;;;4438165;26;20012;-68
2024/04/16 10:44:43;;;;;;;5.50;1.35;;;11.70;99.90;;;;;;4442502;26;20005;-68
2024/04/16 10:46:44;;;;;;;8.45;1.80;;;11.70;99.90;;;;;;4440358;26;20011;-68
2024/04/16 10:48:46;;;;;;;4.35;1.20;;;11.70;99.90;;;;;;4440557;26;20418;-68
2024/04/16 10:50:48;;;;;;;7.05;1.83;;;11.80;99.90;;;;;;4438432;26;20016;-68
2024/04/16 10:52:50;;;;;;;5.07;1.55;;;11.80;99.90;;;;;;4441761;26;20031;-68
2024/04/16 10:54:52;;;;;;;4.63;1.38;;;11.80;99.90;;;;;;4434831;26;20104;-67
2024/04/16 10:56:53;;;;;;;7.07;1.77;;;11.80;99.90;;;;;;4441333;26;20027;-67
2024/04/16 10:58:54;;;;;;;4.35;1.27;;;11.80;99.90;;;;;;4442489;26;20436;-67
2024/04/16 11:00:55;;;;;;;5.05;1.27;;;11.70;99.90;;;;;;4413143;26;20027;-67
2024/04/16 11:02:58;;;;;;;4.93;1.60;;;11.70;99.90;;;;;;4446399;26;20632;-68